sensor_id;sensor_type;location;lat;lon;timestamp;P1;durP1;ratioP1;P2;durP2;ratioP2
14599;SDS011;7386;45.586;12.854;2023-05-21T00:01:43;16.83;;;14.57;;
14599;SDS011;7386;45.586;12.854;2023-05-21T00:04:13;16.10;;;13.85;;
14599;SDS011;7386;45.586;12.854;2023-05-21T00:06:43;16.13;;;13.75;;
14599;SDS011;7386;45.586;12.854;2023-05-21T00:09:12;17.75;;;14.35;;
14599;SDS011;7386;45.586;12.854;2023-05-21T00:11:41;14.82;;;13.18;;
14599;SDS011;7386;45.586;12.854;2023-05-21T00:14:09;16.77;;;13.73;;
14599;SDS011;7386;45.586;12.854;2023-05-21T00:16:38;15.52;;;13.50;;
14599;SDS011;7386;45.586;12.854;2023-05-21T00:19:06;16.33;;;13.30;;
14599;SDS011;7386;45.586;12.854;2023-05-21T00:21:35;14.70;;;13.10;;
14599;SDS011;7386;45.586;12.854;2023-05-21T00:24:05;16.90;;;13.98;;
14599;SDS011;7386;45.586;12.854;2023-05-21T00:26:34;16.38;;;14.50;;
14599;SDS011;7386;45.586;12.854;2023-05-21T00:29:03;16.52;;;14.15;;
14599;SDS011;7386;45.586;12.854;2023-05-21T00:31:31;15.18;;;13.57;;
14599;SDS011;7386;45.586;12.854;2023-05-21T00:34:00;15.90;;;14.10;;
14599;SDS011;7386;45.586;12.854;2023-05-21T00:36:28;15.77;;;13.30;;
14599;SDS011;7386;45.586;12.854;2023-05-21T00:38:59;16.85;;;13.40;;
14599;SDS011;7386;45.586;12.854;2023-05-21T00:41:29;16.50;;;13.73;;
14599;SDS011;7386;45.586;12.854;2023-05-21T00:44:02;18.20;;;13.82;;
14599;SDS011;7386;45.586;12.854;2023-05-21T00:46:30;17.67;;;15.05;;
14599;SDS011;7386;45.586;12.854;2023-05-21T00:48:59;16.40;;;14.05;;
14599;SDS011;7386;45.586;12.854;2023-05-21T00:51:27;16.42;;;13.75;;
14599;SDS011;7386;45.586;12.854;2023-05-21T00:53:56;16.95;;;14.00;;
14599;SDS011;7386;45.586;12.854;2023-05-21T00:56:25;15.00;;;13.15;;
14599;SDS011;7386;45.586;12.854;2023-05-21T00:58:54;16.02;;;14.07;;
14599;SDS011;7386;45.586;12.854;2023-05-21T01:01:25;18.77;;;14.00;;
14599;SDS011;7386;45.586;12.854;2023-05-21T01:03:59;15.90;;;13.95;;
14599;SDS011;7386;45.586;12.854;2023-05-21T01:06:28;16.70;;;13.15;;
14599;SDS011;7386;45.586;12.854;2023-05-21T01:09:00;15.80;;;14.05;;
14599;SDS011;7386;45.586;12.854;2023-05-21T01:11:35;16.27;;;13.85;;
14599;SDS011;7386;45.586;12.854;2023-05-21T01:14:05;16.85;;;13.20;;
14599;SDS011;7386;45.586;12.854;2023-05-21T01:16:36;16.02;;;14.02;;
14599;SDS011;7386;45.586;12.854;2023-05-21T01:19:05;15.77;;;13.40;;
14599;SDS011;7386;45.586;12.854;2023-05-21T01:21:36;16.17;;;14.20;;
14599;SDS011;7386;45.586;12.854;2023-05-21T01:24:07;15.70;;;13.77;;
14599;SDS011;7386;45.586;12.854;2023-05-21T01:26:36;15.95;;;13.95;;
14599;SDS011;7386;45.586;12.854;2023-05-21T01:29:06;15.48;;;13.68;;
14599;SDS011;7386;45.586;12.854;2023-05-21T01:31:41;15.35;;;13.63;;
14599;SDS011;7386;45.586;12.854;2023-05-21T01:34:12;15.82;;;13.05;;
14599;SDS011;7386;45.586;12.854;2023-05-21T01:36:44;15.38;;;13.52;;
14599;SDS011;7386;45.586;12.854;2023-05-21T01:39:18;18.17;;;15.07;;
14599;SDS011;7386;45.586;12.854;2023-05-21T01:41:47;16.13;;;14.13;;
14599;SDS011;7386;45.586;12.854;2023-05-21T01:44:16;16.83;;;14.10;;
14599;SDS011;7386;45.586;12.854;2023-05-21T01:46:46;17.20;;;13.80;;
14599;SDS011;7386;45.586;12.854;2023-05-21T01:49:15;15.88;;;13.80;;
14599;SDS011;7386;45.586;12.854;2023-05-21T01:51:44;17.90;;;14.60;;
14599;SDS011;7386;45.586;12.854;2023-05-21T01:54:13;16.48;;;13.80;;
14599;SDS011;7386;45.586;12.854;2023-05-21T01:56:43;16.05;;;13.77;;
14599;SDS011;7386;45.586;12.854;2023-05-21T01:59:13;14.98;;;13.27;;
14599;SDS011;7386;45.586;12.854;2023-05-21T02:01:42;15.45;;;12.95;;
14599;SDS011;7386;45.586;12.854;2023-05-21T02:04:11;17.25;;;14.77;;
14599;SDS011;7386;45.586;12.854;2023-05-21T02:06:39;20.83;;;14.18;;
14599;SDS011;7386;45.586;12.854;2023-05-21T02:09:08;17.38;;;13.48;;
14599;SDS011;7386;45.586;12.854;2023-05-21T02:11:36;17.35;;;13.95;;
14599;SDS011;7386;45.586;12.854;2023-05-21T02:14:06;16.92;;;14.05;;
14599;SDS011;7386;45.586;12.854;2023-05-21T02:16:35;16.83;;;13.88;;
14599;SDS011;7386;45.586;12.854;2023-05-21T02:19:04;16.55;;;13.85;;
14599;SDS011;7386;45.586;12.854;2023-05-21T02:21:35;15.85;;;13.82;;
14599;SDS011;7386;45.586;12.854;2023-05-21T02:24:04;17.48;;;13.73;;
14599;SDS011;7386;45.586;12.854;2023-05-21T02:26:33;15.93;;;13.02;;
14599;SDS011;7386;45.586;12.854;2023-05-21T02:29:02;14.90;;;12.88;;
14599;SDS011;7386;45.586;12.854;2023-05-21T02:31:32;14.67;;;13.07;;
14599;SDS011;7386;45.586;12.854;2023-05-21T02:34:01;15.10;;;13.48;;
14599;SDS011;7386;45.586;12.854;2023-05-21T02:36:29;14.30;;;12.77;;
14599;SDS011;7386;45.586;12.854;2023-05-21T02:38:58;14.73;;;13.13;;
14599;SDS011;7386;45.586;12.854;2023-05-21T02:41:27;15.10;;;13.02;;
14599;SDS011;7386;45.586;12.854;2023-05-21T02:43:55;13.93;;;12.48;;
14599;SDS011;7386;45.586;12.854;2023-05-21T02:46:24;15.93;;;13.35;;
14599;SDS011;7386;45.586;12.854;2023-05-21T02:48:54;15.82;;;13.02;;
14599;SDS011;7386;45.586;12.854;2023-05-21T02:51:22;15.82;;;13.35;;
14599;SDS011;7386;45.586;12.854;2023-05-21T02:53:51;15.45;;;13.00;;
14599;SDS011;7386;45.586;12.854;2023-05-21T02:56:19;17.75;;;13.02;;
14599;SDS011;7386;45.586;12.854;2023-05-21T02:58:48;14.70;;;13.18;;
14599;SDS011;7386;45.586;12.854;2023-05-21T03:01:17;16.05;;;13.43;;
14599;SDS011;7386;45.586;12.854;2023-05-21T03:03:45;14.40;;;12.90;;
14599;SDS011;7386;45.586;12.854;2023-05-21T03:06:15;15.40;;;12.98;;
14599;SDS011;7386;45.586;12.854;2023-05-21T03:08:44;15.38;;;12.82;;
14599;SDS011;7386;45.586;12.854;2023-05-21T03:11:12;14.88;;;13.07;;
14599;SDS011;7386;45.586;12.854;2023-05-21T03:13:41;17.02;;;13.57;;
14599;SDS011;7386;45.586;12.854;2023-05-21T03:16:09;18.85;;;13.77;;
14599;SDS011;7386;45.586;12.854;2023-05-21T03:18:38;15.70;;;14.00;;
14599;SDS011;7386;45.586;12.854;2023-05-21T03:21:06;15.20;;;12.82;;
14599;SDS011;7386;45.586;12.854;2023-05-21T03:23:36;15.45;;;13.30;;
14599;SDS011;7386;45.586;12.854;2023-05-21T03:26:05;16.15;;;13.48;;
14599;SDS011;7386;45.586;12.854;2023-05-21T03:28:34;16.05;;;14.35;;
14599;SDS011;7386;45.586;12.854;2023-05-21T03:31:02;15.57;;;13.60;;
14599;SDS011;7386;45.586;12.854;2023-05-21T03:33:31;15.77;;;13.18;;
14599;SDS011;7386;45.586;12.854;2023-05-21T03:35:59;16.08;;;14.27;;
14599;SDS011;7386;45.586;12.854;2023-05-21T03:38:28;15.93;;;13.60;;
14599;SDS011;7386;45.586;12.854;2023-05-21T03:40:58;16.90;;;13.40;;
14599;SDS011;7386;45.586;12.854;2023-05-21T03:43:26;15.95;;;13.18;;
14599;SDS011;7386;45.586;12.854;2023-05-21T03:45:54;14.73;;;13.15;;
14599;SDS011;7386;45.586;12.854;2023-05-21T03:48:23;16.05;;;13.07;;
14599;SDS011;7386;45.586;12.854;2023-05-21T03:50:51;16.42;;;13.70;;
14599;SDS011;7386;45.586;12.854;2023-05-21T03:53:20;16.23;;;13.63;;
14599;SDS011;7386;45.586;12.854;2023-05-21T03:55:49;16.50;;;13.75;;
14599;SDS011;7386;45.586;12.854;2023-05-21T03:58:22;16.85;;;14.13;;
14599;SDS011;7386;45.586;12.854;2023-05-21T04:00:52;14.50;;;12.18;;
14599;SDS011;7386;45.586;12.854;2023-05-21T04:03:20;17.80;;;13.90;;
14599;SDS011;7386;45.586;12.854;2023-05-21T04:05:49;16.88;;;13.93;;
14599;SDS011;7386;45.586;12.854;2023-05-21T04:08:18;16.48;;;13.43;;
14599;SDS011;7386;45.586;12.854;2023-05-21T04:10:46;16.08;;;13.35;;
14599;SDS011;7386;45.586;12.854;2023-05-21T04:13:15;14.43;;;12.60;;
14599;SDS011;7386;45.586;12.854;2023-05-21T04:15:44;14.32;;;12.82;;
14599;SDS011;7386;45.586;12.854;2023-05-21T04:18:13;14.73;;;12.77;;
14599;SDS011;7386;45.586;12.854;2023-05-21T04:20:42;15.52;;;13.05;;
14599;SDS011;7386;45.586;12.854;2023-05-21T04:23:11;15.18;;;12.88;;
14599;SDS011;7386;45.586;12.854;2023-05-21T04:25:39;18.17;;;13.73;;
14599;SDS011;7386;45.586;12.854;2023-05-21T04:28:07;21.60;;;13.73;;
14599;SDS011;7386;45.586;12.854;2023-05-21T04:30:36;16.05;;;13.55;;
14599;SDS011;7386;45.586;12.854;2023-05-21T04:33:06;14.85;;;12.98;;
14599;SDS011;7386;45.586;12.854;2023-05-21T04:35:35;15.90;;;12.75;;
14599;SDS011;7386;45.586;12.854;2023-05-21T04:38:09;15.18;;;12.60;;
14599;SDS011;7386;45.586;12.854;2023-05-21T04:40:39;15.90;;;13.63;;
14599;SDS011;7386;45.586;12.854;2023-05-21T04:43:08;17.33;;;13.82;;
14599;SDS011;7386;45.586;12.854;2023-05-21T04:45:37;14.70;;;13.18;;
14599;SDS011;7386;45.586;12.854;2023-05-21T04:48:07;13.93;;;12.15;;
14599;SDS011;7386;45.586;12.854;2023-05-21T04:50:35;17.23;;;13.40;;
14599;SDS011;7386;45.586;12.854;2023-05-21T04:53:04;15.65;;;13.13;;
14599;SDS011;7386;45.586;12.854;2023-05-21T04:55:32;14.77;;;12.63;;
14599;SDS011;7386;45.586;12.854;2023-05-21T04:58:04;14.00;;;12.50;;
14599;SDS011;7386;45.586;12.854;2023-05-21T05:00:33;14.60;;;12.10;;
14599;SDS011;7386;45.586;12.854;2023-05-21T05:03:03;13.82;;;11.98;;
14599;SDS011;7386;45.586;12.854;2023-05-21T05:05:33;14.32;;;12.68;;
14599;SDS011;7386;45.586;12.854;2023-05-21T05:08:01;15.90;;;13.32;;
14599;SDS011;7386;45.586;12.854;2023-05-21T05:10:30;14.18;;;12.35;;
14599;SDS011;7386;45.586;12.854;2023-05-21T05:12:58;16.13;;;12.60;;
14599;SDS011;7386;45.586;12.854;2023-05-21T05:15:27;16.13;;;13.20;;
14599;SDS011;7386;45.586;12.854;2023-05-21T05:17:55;14.85;;;12.63;;
14599;SDS011;7386;45.586;12.854;2023-05-21T05:20:24;15.68;;;13.98;;
14599;SDS011;7386;45.586;12.854;2023-05-21T05:22:54;15.43;;;13.15;;
14599;SDS011;7386;45.586;12.854;2023-05-21T05:25:22;13.68;;;12.05;;
14599;SDS011;7386;45.586;12.854;2023-05-21T05:27:51;14.38;;;12.75;;
14599;SDS011;7386;45.586;12.854;2023-05-21T05:30:19;15.50;;;13.23;;
14599;SDS011;7386;45.586;12.854;2023-05-21T05:32:48;14.85;;;12.52;;
14599;SDS011;7386;45.586;12.854;2023-05-21T05:35:16;17.48;;;13.27;;
14599;SDS011;7386;45.586;12.854;2023-05-21T05:37:45;14.65;;;12.25;;
14599;SDS011;7386;45.586;12.854;2023-05-21T05:40:15;13.82;;;12.38;;
14599;SDS011;7386;45.586;12.854;2023-05-21T05:42:43;14.77;;;11.52;;
14599;SDS011;7386;45.586;12.854;2023-05-21T05:45:14;14.15;;;11.63;;
14599;SDS011;7386;45.586;12.854;2023-05-21T05:47:43;14.32;;;11.98;;
14599;SDS011;7386;45.586;12.854;2023-05-21T05:50:11;13.93;;;11.93;;
14599;SDS011;7386;45.586;12.854;2023-05-21T05:52:40;17.27;;;12.82;;
14599;SDS011;7386;45.586;12.854;2023-05-21T05:55:08;15.45;;;12.88;;
14599;SDS011;7386;45.586;12.854;2023-05-21T05:57:39;15.20;;;13.20;;
14599;SDS011;7386;45.586;12.854;2023-05-21T06:00:11;15.85;;;12.93;;
14599;SDS011;7386;45.586;12.854;2023-05-21T06:02:39;14.90;;;12.27;;
14599;SDS011;7386;45.586;12.854;2023-05-21T06:05:08;13.15;;;11.43;;
14599;SDS011;7386;45.586;12.854;2023-05-21T06:07:37;13.05;;;11.65;;
14599;SDS011;7386;45.586;12.854;2023-05-21T06:10:06;13.85;;;12.45;;
14599;SDS011;7386;45.586;12.854;2023-05-21T06:12:35;14.05;;;12.55;;
14599;SDS011;7386;45.586;12.854;2023-05-21T06:15:05;12.55;;;11.25;;
14599;SDS011;7386;45.586;12.854;2023-05-21T06:17:34;16.05;;;12.70;;
14599;SDS011;7386;45.586;12.854;2023-05-21T06:20:03;12.95;;;11.52;;
14599;SDS011;7386;45.586;12.854;2023-05-21T06:22:32;14.00;;;11.80;;
14599;SDS011;7386;45.586;12.854;2023-05-21T06:25:02;13.38;;;11.65;;
14599;SDS011;7386;45.586;12.854;2023-05-21T06:27:31;14.10;;;11.55;;
14599;SDS011;7386;45.586;12.854;2023-05-21T06:29:59;13.57;;;11.25;;
14599;SDS011;7386;45.586;12.854;2023-05-21T06:32:29;13.25;;;11.38;;
14599;SDS011;7386;45.586;12.854;2023-05-21T06:34:58;13.00;;;11.27;;
14599;SDS011;7386;45.586;12.854;2023-05-21T06:37:26;14.02;;;11.27;;
14599;SDS011;7386;45.586;12.854;2023-05-21T06:39:54;12.65;;;11.35;;
14599;SDS011;7386;45.586;12.854;2023-05-21T06:42:23;11.57;;;10.00;;
14599;SDS011;7386;45.586;12.854;2023-05-21T06:44:51;11.05;;;9.80;;
14599;SDS011;7386;45.586;12.854;2023-05-21T06:47:20;10.93;;;9.73;;
14599;SDS011;7386;45.586;12.854;2023-05-21T06:49:50;11.07;;;9.65;;
14599;SDS011;7386;45.586;12.854;2023-05-21T06:52:18;12.50;;;9.93;;
14599;SDS011;7386;45.586;12.854;2023-05-21T06:54:47;10.57;;;8.88;;
14599;SDS011;7386;45.586;12.854;2023-05-21T06:57:15;9.80;;;8.80;;
14599;SDS011;7386;45.586;12.854;2023-05-21T06:59:44;10.98;;;9.23;;
14599;SDS011;7386;45.586;12.854;2023-05-21T07:02:12;10.35;;;9.25;;
14599;SDS011;7386;45.586;12.854;2023-05-21T07:04:41;10.57;;;9.30;;
14599;SDS011;7386;45.586;12.854;2023-05-21T07:07:11;11.23;;;8.82;;
14599;SDS011;7386;45.586;12.854;2023-05-21T07:09:40;9.05;;;8.15;;
14599;SDS011;7386;45.586;12.854;2023-05-21T07:12:08;9.65;;;8.43;;
14599;SDS011;7386;45.586;12.854;2023-05-21T07:14:37;12.10;;;8.35;;
14599;SDS011;7386;45.586;12.854;2023-05-21T07:17:05;11.38;;;8.60;;
14599;SDS011;7386;45.586;12.854;2023-05-21T07:19:34;9.90;;;8.90;;
14599;SDS011;7386;45.586;12.854;2023-05-21T07:22:03;8.90;;;8.02;;
14599;SDS011;7386;45.586;12.854;2023-05-21T07:24:34;9.70;;;8.70;;
14599;SDS011;7386;45.586;12.854;2023-05-21T07:27:02;12.80;;;8.73;;
14599;SDS011;7386;45.586;12.854;2023-05-21T07:29:49;9.82;;;8.73;;
14599;SDS011;7386;45.586;12.854;2023-05-21T07:32:18;9.23;;;8.32;;
14599;SDS011;7386;45.586;12.854;2023-05-21T07:34:46;9.63;;;8.63;;
14599;SDS011;7386;45.586;12.854;2023-05-21T07:37:17;9.90;;;8.02;;
14599;SDS011;7386;45.586;12.854;2023-05-21T07:39:47;10.05;;;8.70;;
14599;SDS011;7386;45.586;12.854;2023-05-21T07:42:15;10.43;;;8.43;;
14599;SDS011;7386;45.586;12.854;2023-05-21T07:44:44;9.32;;;8.32;;
14599;SDS011;7386;45.586;12.854;2023-05-21T07:47:12;10.52;;;8.80;;
14599;SDS011;7386;45.586;12.854;2023-05-21T07:49:41;9.77;;;8.63;;
14599;SDS011;7386;45.586;12.854;2023-05-21T07:52:09;9.55;;;8.55;;
14599;SDS011;7386;45.586;12.854;2023-05-21T07:54:38;10.23;;;8.82;;
14599;SDS011;7386;45.586;12.854;2023-05-21T07:57:08;9.70;;;8.75;;
14599;SDS011;7386;45.586;12.854;2023-05-21T07:59:36;11.88;;;9.73;;
14599;SDS011;7386;45.586;12.854;2023-05-21T08:02:05;11.13;;;9.23;;
14599;SDS011;7386;45.586;12.854;2023-05-21T08:04:33;12.35;;;9.15;;
14599;SDS011;7386;45.586;12.854;2023-05-21T08:07:06;12.82;;;9.45;;
14599;SDS011;7386;45.586;12.854;2023-05-21T08:09:35;11.85;;;9.05;;
14599;SDS011;7386;45.586;12.854;2023-05-21T08:12:03;12.20;;;9.57;;
14599;SDS011;7386;45.586;12.854;2023-05-21T08:14:33;10.23;;;9.13;;
14599;SDS011;7386;45.586;12.854;2023-05-21T08:17:02;10.85;;;9.20;;
14599;SDS011;7386;45.586;12.854;2023-05-21T08:19:30;9.18;;;8.10;;
14599;SDS011;7386;45.586;12.854;2023-05-21T08:21:59;11.43;;;8.60;;
14599;SDS011;7386;45.586;12.854;2023-05-21T08:24:28;13.52;;;9.63;;
14599;SDS011;7386;45.586;12.854;2023-05-21T08:26:57;13.55;;;9.57;;
14599;SDS011;7386;45.586;12.854;2023-05-21T08:29:25;15.85;;;9.80;;
14599;SDS011;7386;45.586;12.854;2023-05-21T08:31:55;14.35;;;9.60;;
14599;SDS011;7386;45.586;12.854;2023-05-21T08:34:24;13.63;;;9.35;;
14599;SDS011;7386;45.586;12.854;2023-05-21T08:36:52;13.93;;;9.35;;
14599;SDS011;7386;45.586;12.854;2023-05-21T08:39:21;13.55;;;9.20;;
14599;SDS011;7386;45.586;12.854;2023-05-21T08:41:49;17.13;;;9.50;;
14599;SDS011;7386;45.586;12.854;2023-05-21T08:44:20;13.32;;;9.13;;
14599;SDS011;7386;45.586;12.854;2023-05-21T08:46:51;20.67;;;10.18;;
14599;SDS011;7386;45.586;12.854;2023-05-21T08:49:22;14.45;;;9.38;;
14599;SDS011;7386;45.586;12.854;2023-05-21T08:51:53;25.95;;;10.77;;
14599;SDS011;7386;45.586;12.854;2023-05-21T08:54:22;26.08;;;10.35;;
14599;SDS011;7386;45.586;12.854;2023-05-21T08:59:21;23.75;;;9.93;;
14599;SDS011;7386;45.586;12.854;2023-05-21T09:01:50;19.58;;;9.43;;
14599;SDS011;7386;45.586;12.854;2023-05-21T09:04:19;12.95;;;8.50;;
14599;SDS011;7386;45.586;12.854;2023-05-21T09:06:49;14.80;;;8.57;;
14599;SDS011;7386;45.586;12.854;2023-05-21T09:09:20;17.63;;;9.07;;
14599;SDS011;7386;45.586;12.854;2023-05-21T09:11:51;17.63;;;9.82;;
14599;SDS011;7386;45.586;12.854;2023-05-21T09:14:20;25.27;;;9.85;;
14599;SDS011;7386;45.586;12.854;2023-05-21T09:16:48;13.20;;;9.07;;
14599;SDS011;7386;45.586;12.854;2023-05-21T09:19:18;13.65;;;8.75;;
14599;SDS011;7386;45.586;12.854;2023-05-21T09:21:50;11.93;;;9.02;;
14599;SDS011;7386;45.586;12.854;2023-05-21T09:24:20;17.20;;;9.45;;
14599;SDS011;7386;45.586;12.854;2023-05-21T09:26:49;14.73;;;8.95;;
14599;SDS011;7386;45.586;12.854;2023-05-21T09:29:18;11.80;;;8.75;;
14599;SDS011;7386;45.586;12.854;2023-05-21T09:31:46;14.43;;;8.80;;
14599;SDS011;7386;45.586;12.854;2023-05-21T09:34:15;15.25;;;9.38;;
14599;SDS011;7386;45.586;12.854;2023-05-21T09:36:43;15.57;;;9.23;;
14599;SDS011;7386;45.586;12.854;2023-05-21T09:39:14;15.65;;;8.98;;
14599;SDS011;7386;45.586;12.854;2023-05-21T09:41:56;10.80;;;8.48;;
14599;SDS011;7386;45.586;12.854;2023-05-21T09:44:24;11.13;;;8.98;;
14599;SDS011;7386;45.586;12.854;2023-05-21T09:46:55;12.93;;;8.77;;
14599;SDS011;7386;45.586;12.854;2023-05-21T09:49:25;17.92;;;8.93;;
14599;SDS011;7386;45.586;12.854;2023-05-21T09:51:54;13.18;;;9.45;;
14599;SDS011;7386;45.586;12.854;2023-05-21T09:54:24;12.93;;;9.43;;
14599;SDS011;7386;45.586;12.854;2023-05-21T09:56:53;13.50;;;9.25;;
14599;SDS011;7386;45.586;12.854;2023-05-21T09:59:21;13.98;;;9.00;;
14599;SDS011;7386;45.586;12.854;2023-05-21T10:01:50;12.13;;;8.98;;
14599;SDS011;7386;45.586;12.854;2023-05-21T10:04:20;13.70;;;9.57;;
14599;SDS011;7386;45.586;12.854;2023-05-21T10:06:49;12.20;;;9.25;;
14599;SDS011;7386;45.586;12.854;2023-05-21T10:09:19;13.07;;;9.18;;
14599;SDS011;7386;45.586;12.854;2023-05-21T10:11:49;11.23;;;8.65;;
14599;SDS011;7386;45.586;12.854;2023-05-21T10:14:20;10.90;;;8.75;;
14599;SDS011;7386;45.586;12.854;2023-05-21T10:16:49;12.15;;;9.27;;
14599;SDS011;7386;45.586;12.854;2023-05-21T10:19:19;11.27;;;9.38;;
14599;SDS011;7386;45.586;12.854;2023-05-21T10:21:50;13.82;;;9.23;;
14599;SDS011;7386;45.586;12.854;2023-05-21T10:24:19;12.57;;;9.50;;
14599;SDS011;7386;45.586;12.854;2023-05-21T10:26:47;13.15;;;9.23;;
14599;SDS011;7386;45.586;12.854;2023-05-21T10:29:18;11.93;;;8.75;;
14599;SDS011;7386;45.586;12.854;2023-05-21T10:31:46;10.68;;;9.10;;
14599;SDS011;7386;45.586;12.854;2023-05-21T10:34:16;13.38;;;9.45;;
14599;SDS011;7386;45.586;12.854;2023-05-21T10:36:47;13.77;;;9.65;;
14599;SDS011;7386;45.586;12.854;2023-05-21T10:39:16;11.18;;;8.60;;
14599;SDS011;7386;45.586;12.854;2023-05-21T10:41:48;13.52;;;9.20;;
14599;SDS011;7386;45.586;12.854;2023-05-21T10:44:24;12.93;;;9.18;;
14599;SDS011;7386;45.586;12.854;2023-05-21T10:46:59;13.60;;;8.80;;
14599;SDS011;7386;45.586;12.854;2023-05-21T10:49:35;13.02;;;8.52;;
14599;SDS011;7386;45.586;12.854;2023-05-21T10:52:06;9.73;;;8.10;;
14599;SDS011;7386;45.586;12.854;2023-05-21T11:00:10;11.10;;;9.20;;
14599;SDS011;7386;45.586;12.854;2023-05-21T11:02:39;13.80;;;9.27;;
14599;SDS011;7386;45.586;12.854;2023-05-21T11:05:08;13.13;;;8.93;;
14599;SDS011;7386;45.586;12.854;2023-05-21T11:07:50;12.57;;;8.85;;
14599;SDS011;7386;45.586;12.854;2023-05-21T11:10:31;10.90;;;8.75;;
14599;SDS011;7386;45.586;12.854;2023-05-21T11:13:04;10.73;;;8.82;;
14599;SDS011;7386;45.586;12.854;2023-05-21T11:18:17;12.88;;;9.00;;
14599;SDS011;7386;45.586;12.854;2023-05-21T11:20:49;15.05;;;8.55;;
14599;SDS011;7386;45.586;12.854;2023-05-21T11:23:17;12.50;;;9.10;;
14599;SDS011;7386;45.586;12.854;2023-05-21T11:25:50;9.88;;;8.88;;
14599;SDS011;7386;45.586;12.854;2023-05-21T11:28:31;9.50;;;8.43;;
14599;SDS011;7386;45.586;12.854;2023-05-21T11:33:48;11.02;;;8.68;;
14599;SDS011;7386;45.586;12.854;2023-05-21T11:36:35;10.70;;;8.60;;
14599;SDS011;7386;45.586;12.854;2023-05-21T11:39:07;10.55;;;8.27;;
14599;SDS011;7386;45.586;12.854;2023-05-21T11:41:52;11.55;;;8.73;;
14599;SDS011;7386;45.586;12.854;2023-05-21T11:44:33;11.95;;;8.75;;
14599;SDS011;7386;45.586;12.854;2023-05-21T11:47:05;10.52;;;9.43;;
14599;SDS011;7386;45.586;12.854;2023-05-21T11:49:36;11.88;;;9.32;;
14599;SDS011;7386;45.586;12.854;2023-05-21T11:52:05;13.35;;;9.20;;
14599;SDS011;7386;45.586;12.854;2023-05-21T11:54:37;12.32;;;9.05;;
14599;SDS011;7386;45.586;12.854;2023-05-21T11:57:06;11.20;;;8.77;;
14599;SDS011;7386;45.586;12.854;2023-05-21T11:59:35;13.90;;;9.55;;
14599;SDS011;7386;45.586;12.854;2023-05-21T12:02:04;11.23;;;9.07;;
14599;SDS011;7386;45.586;12.854;2023-05-21T12:04:34;11.38;;;8.82;;
14599;SDS011;7386;45.586;12.854;2023-05-21T12:07:04;14.20;;;9.55;;
14599;SDS011;7386;45.586;12.854;2023-05-21T12:09:37;10.77;;;8.50;;
14599;SDS011;7386;45.586;12.854;2023-05-21T12:12:06;11.15;;;9.52;;
14599;SDS011;7386;45.586;12.854;2023-05-21T12:14:35;12.23;;;9.52;;
14599;SDS011;7386;45.586;12.854;2023-05-21T12:17:04;11.82;;;8.65;;
14599;SDS011;7386;45.586;12.854;2023-05-21T12:19:33;10.80;;;9.10;;
14599;SDS011;7386;45.586;12.854;2023-05-21T12:22:02;9.85;;;8.65;;
14599;SDS011;7386;45.586;12.854;2023-05-21T12:24:32;12.43;;;8.43;;
14599;SDS011;7386;45.586;12.854;2023-05-21T12:27:01;11.02;;;8.25;;
14599;SDS011;7386;45.586;12.854;2023-05-21T12:29:35;8.98;;;8.07;;
14599;SDS011;7386;45.586;12.854;2023-05-21T12:32:06;11.85;;;8.57;;
14599;SDS011;7386;45.586;12.854;2023-05-21T12:34:41;10.23;;;8.75;;
14599;SDS011;7386;45.586;12.854;2023-05-21T12:37:11;9.35;;;8.35;;
14599;SDS011;7386;45.586;12.854;2023-05-21T12:39:44;9.85;;;8.30;;
14599;SDS011;7386;45.586;12.854;2023-05-21T12:42:13;9.80;;;7.95;;
14599;SDS011;7386;45.586;12.854;2023-05-21T12:44:43;9.52;;;8.50;;
14599;SDS011;7386;45.586;12.854;2023-05-21T12:47:11;11.88;;;8.20;;
14599;SDS011;7386;45.586;12.854;2023-05-21T12:49:41;9.65;;;8.38;;
14599;SDS011;7386;45.586;12.854;2023-05-21T12:52:10;11.43;;;8.25;;
14599;SDS011;7386;45.586;12.854;2023-05-21T12:54:39;9.68;;;8.10;;
14599;SDS011;7386;45.586;12.854;2023-05-21T12:57:13;9.60;;;8.30;;
14599;SDS011;7386;45.586;12.854;2023-05-21T12:59:43;9.38;;;8.18;;
14599;SDS011;7386;45.586;12.854;2023-05-21T13:02:13;11.65;;;8.30;;
14599;SDS011;7386;45.586;12.854;2023-05-21T13:04:42;12.15;;;8.40;;
14599;SDS011;7386;45.586;12.854;2023-05-21T13:07:10;10.48;;;8.65;;
14599;SDS011;7386;45.586;12.854;2023-05-21T13:09:39;11.05;;;8.15;;
14599;SDS011;7386;45.586;12.854;2023-05-21T13:12:07;12.70;;;8.75;;
14599;SDS011;7386;45.586;12.854;2023-05-21T13:14:37;11.68;;;8.00;;
14599;SDS011;7386;45.586;12.854;2023-05-21T13:17:06;11.30;;;8.25;;
14599;SDS011;7386;45.586;12.854;2023-05-21T13:19:34;11.95;;;8.25;;
14599;SDS011;7386;45.586;12.854;2023-05-21T13:22:03;11.98;;;7.90;;
14599;SDS011;7386;45.586;12.854;2023-05-21T13:24:32;10.60;;;8.02;;
14599;SDS011;7386;45.586;12.854;2023-05-21T13:27:01;13.20;;;7.93;;
14599;SDS011;7386;45.586;12.854;2023-05-21T13:29:29;9.10;;;7.80;;
14599;SDS011;7386;45.586;12.854;2023-05-21T13:31:59;12.18;;;8.90;;
14599;SDS011;7386;45.586;12.854;2023-05-21T13:34:27;10.57;;;8.80;;
14599;SDS011;7386;45.586;12.854;2023-05-21T13:36:56;11.77;;;8.75;;
14599;SDS011;7386;45.586;12.854;2023-05-21T13:39:24;11.20;;;8.35;;
14599;SDS011;7386;45.586;12.854;2023-05-21T13:41:53;12.35;;;8.85;;
14599;SDS011;7386;45.586;12.854;2023-05-21T13:44:21;11.60;;;8.13;;
14599;SDS011;7386;45.586;12.854;2023-05-21T13:46:50;12.50;;;8.80;;
14599;SDS011;7386;45.586;12.854;2023-05-21T13:49:20;9.75;;;8.23;;
14599;SDS011;7386;45.586;12.854;2023-05-21T13:51:48;10.25;;;8.32;;
14599;SDS011;7386;45.586;12.854;2023-05-21T13:54:17;11.48;;;8.65;;
14599;SDS011;7386;45.586;12.854;2023-05-21T13:56:45;11.98;;;8.45;;
14599;SDS011;7386;45.586;12.854;2023-05-21T13:59:14;9.80;;;8.38;;
14599;SDS011;7386;45.586;12.854;2023-05-21T14:01:42;12.18;;;8.93;;
14599;SDS011;7386;45.586;12.854;2023-05-21T14:04:11;9.15;;;8.23;;
14599;SDS011;7386;45.586;12.854;2023-05-21T14:06:41;9.30;;;8.13;;
14599;SDS011;7386;45.586;12.854;2023-05-21T14:09:10;9.23;;;7.82;;
14599;SDS011;7386;45.586;12.854;2023-05-21T14:11:39;11.43;;;7.97;;
14599;SDS011;7386;45.586;12.854;2023-05-21T14:14:07;9.15;;;8.23;;
14599;SDS011;7386;45.586;12.854;2023-05-21T14:16:36;11.68;;;8.50;;
14599;SDS011;7386;45.586;12.854;2023-05-21T14:19:05;9.55;;;8.35;;
14599;SDS011;7386;45.586;12.854;2023-05-21T14:21:33;10.23;;;8.43;;
14599;SDS011;7386;45.586;12.854;2023-05-21T14:24:04;9.15;;;8.25;;
14599;SDS011;7386;45.586;12.854;2023-05-21T14:26:33;10.02;;;8.13;;
14599;SDS011;7386;45.586;12.854;2023-05-21T14:29:02;8.70;;;7.78;;
14599;SDS011;7386;45.586;12.854;2023-05-21T14:31:31;11.05;;;8.13;;
14599;SDS011;7386;45.586;12.854;2023-05-21T14:33:59;9.25;;;8.30;;
14599;SDS011;7386;45.586;12.854;2023-05-21T14:36:28;10.02;;;8.35;;
14599;SDS011;7386;45.586;12.854;2023-05-21T14:38:57;10.23;;;8.38;;
14599;SDS011;7386;45.586;12.854;2023-05-21T14:41:27;10.60;;;8.38;;
14599;SDS011;7386;45.586;12.854;2023-05-21T14:43:56;10.38;;;8.32;;
14599;SDS011;7386;45.586;12.854;2023-05-21T14:46:25;10.48;;;8.68;;
14599;SDS011;7386;45.586;12.854;2023-05-21T14:48:53;9.27;;;8.18;;
14599;SDS011;7386;45.586;12.854;2023-05-21T14:51:24;11.30;;;8.75;;
14599;SDS011;7386;45.586;12.854;2023-05-21T14:53:52;9.73;;;8.50;;
14599;SDS011;7386;45.586;12.854;2023-05-21T14:56:22;10.02;;;8.75;;
14599;SDS011;7386;45.586;12.854;2023-05-21T14:58:54;10.93;;;8.60;;